Time;durP1;ratioP1;P1;durP2;ratioP2;P2;SDS_P1;SDS_P2;PMS_P1;PMS_P2;Temp;Humidity;BMP_temperature;BMP_pressure;BME280_temperature;BME280_humidity;BME280_pressure;Samples;Min_cycle;Max_cycle;Signal;HPM_P1;HPM_P2
2020/12/19 00:01:32;;;;;;;17.93;16.40;;;;;;;4.93;92.31;100822.31;5053432;28;20179;-77
2020/12/19 00:03:57;;;;;;;18.90;17.40;;;;;;;4.81;92.53;100821.69;5053379;28;20179;-77
2020/12/19 00:06:22;;;;;;;19.30;17.60;;;;;;;4.91;92.30;100819.84;5053055;28;20233;-77
2020/12/19 00:08:48;;;;;;;19.17;17.67;;;;;;;4.82;92.18;100815.22;5053233;28;20869;-77
2020/12/19 00:11:13;;;;;;;18.70;16.87;;;;;;;4.93;92.06;100814.19;5053064;28;20178;-77
2020/12/19 00:13:38;;;;;;;17.50;15.90;;;;;;;4.88;91.97;100811.44;5053050;28;20194;-77
2020/12/19 00:16:04;;;;;;;17.70;16.20;;;;;;;4.92;92.00;100809.81;5052845;28;20199;-77
2020/12/19 00:18:29;;;;;;;15.37;13.97;;;;;;;4.97;91.73;100809.84;5051789;28;20205;-77
2020/12/19 00:20:54;;;;;;;20.13;18.33;;;;;;;4.76;91.80;100806.22;5052851;28;20654;-77
2020/12/19 00:23:20;;;;;;;20.50;18.27;;;;;;;4.76;91.86;100804.34;5052676;28;20178;-77
2020/12/19 00:25:45;;;;;;;18.73;17.23;;;;;;;4.72;92.11;100813.25;5052801;28;20198;-77
2020/12/19 00:28:10;;;;;;;18.97;17.47;;;;;;;4.72;91.71;100803.25;5052891;28;20179;-77
2020/12/19 00:30:36;;;;;;;18.00;16.50;;;;;;;4.71;92.33;100806.22;5052730;28;20198;-77
2020/12/19 00:33:01;;;;;;;18.13;16.57;;;;;;;4.65;92.00;100808.09;5052651;28;20500;-77
2020/12/19 00:35:26;;;;;;;18.93;16.87;;;;;;;4.58;92.17;100807.50;5052565;28;20206;-77
2020/12/19 00:37:52;;;;;;;16.93;15.63;;;;;;;4.74;92.23;100795.66;5052405;28;20645;-77
2020/12/19 00:40:17;;;;;;;16.50;15.27;;;;;;;4.79;92.23;100803.03;5052511;28;20183;-76
2020/12/19 00:42:43;;;;;;;16.50;15.20;;;;;;;4.74;92.55;100797.56;5052499;28;20167;-77
2020/12/19 00:45:08;;;;;;;14.30;13.07;;;;;;;4.86;92.11;100790.03;5052438;28;20175;-77
2020/12/19 00:47:37;;;;;;;14.67;13.30;;;;;;;5.01;92.38;100795.50;5052388;28;20186;-76
2020/12/19 00:50:08;;;;;;;15.60;14.30;;;;;;;5.01;91.72;100792.81;5052321;28;20258;-77
2020/12/19 00:52:34;;;;;;;14.63;13.30;;;;;;;5.04;91.81;100783.34;5052313;28;20511;-77
2020/12/19 00:54:59;;;;;;;15.00;13.73;;;;;;;5.06;91.32;100784.72;5052216;28;20209;-77
2020/12/19 00:57:29;;;;;;;15.20;13.90;;;;;;;5.00;91.29;100785.75;5052080;28;20531;-77
2020/12/19 00:59:55;;;;;;;14.10;13.00;;;;;;;4.89;91.09;100781.38;5052429;28;20171;-77
2020/12/19 01:02:20;;;;;;;14.13;12.93;;;;;;;4.85;91.18;100782.19;5052158;28;20183;-76
2020/12/19 01:04:45;;;;;;;15.00;13.57;;;;;;;4.82;91.49;100770.00;5051955;28;20207;-77
2020/12/19 01:07:11;;;;;;;15.57;14.17;;;;;;;4.81;91.70;100767.56;5050491;28;20262;-77
2020/12/19 01:09:37;;;;;;;14.07;12.77;;;;;;;4.83;92.30;100768.13;5052378;28;20492;-76
2020/12/19 01:12:05;;;;;;;12.90;11.80;;;;;;;4.86;91.85;100762.16;5051845;28;20175;-76
2020/12/19 01:14:31;;;;;;;15.27;13.97;;;;;;;4.89;92.31;100765.13;5050516;28;20175;-77
2020/12/19 01:16:56;;;;;;;13.67;12.57;;;;;;;4.85;92.04;100764.06;5050348;28;20182;-77
2020/12/19 01:19:21;;;;;;;13.00;12.00;;;;;;;4.72;91.03;100764.53;5051692;28;20201;-77
2020/12/19 01:21:47;;;;;;;13.80;12.80;;;;;;;4.66;91.56;100757.50;5050399;28;20209;-77
2020/12/19 01:24:12;;;;;;;12.47;11.47;;;;;;;4.61;91.53;100762.88;5051743;28;20183;-77
2020/12/19 01:26:37;;;;;;;13.13;12.13;;;;;;;4.51;91.69;100765.53;5051621;28;20202;-77
2020/12/19 01:29:03;;;;;;;13.53;12.43;;;;;;;4.39;91.44;100765.75;5051383;28;20249;-77
2020/12/19 01:31:28;;;;;;;13.70;12.60;;;;;;;4.32;91.31;100765.16;5051562;28;20232;-77
2020/12/19 01:33:53;;;;;;;16.23;14.83;;;;;;;4.38;92.10;100766.81;5051286;28;20244;-76
2020/12/19 01:36:21;;;;;;;15.77;14.57;;;;;;;4.43;92.87;100767.66;5051238;28;20213;-77
2020/12/19 01:38:46;;;;;;;16.27;14.97;;;;;;;4.45;92.96;100759.28;5051545;28;20175;-77
2020/12/19 01:41:12;;;;;;;16.50;15.10;;;;;;;4.45;92.60;100756.56;5050318;28;20198;-76
2020/12/19 01:43:51;;;;;;;17.50;16.00;;;;;;;4.48;92.79;100759.59;5051190;28;20175;-77
2020/12/19 01:46:41;;;;;;;16.77;15.23;;;;;;;4.54;92.60;100756.91;5051253;28;20171;-77
2020/12/19 01:49:07;;;;;;;16.77;15.17;;;;;;;4.49;92.43;100752.28;5051207;28;20195;-77
2020/12/19 01:51:33;;;;;;;18.83;17.03;;;;;;;4.36;92.76;100742.75;5051143;28;20179;-77
2020/12/19 01:53:58;;;;;;;19.17;17.30;;;;;;;4.34;92.93;100735.94;5051131;28;20179;-77
2020/12/19 01:56:46;;;;;;;19.17;17.27;;;;;;;4.36;92.62;100741.94;5051551;28;20222;-77
2020/12/19 01:59:11;;;;;;;16.93;15.50;;;;;;;4.40;92.49;100743.84;5051260;28;20191;-77
2020/12/19 02:01:44;;;;;;;16.90;15.40;;;;;;;4.36;92.47;100741.94;5050983;28;20690;-76
2020/12/19 02:04:10;;;;;;;17.97;16.13;;;;;;;4.17;92.18;100736.94;5050954;28;20672;-77
2020/12/19 02:06:35;;;;;;;18.17;16.67;;;;;;;4.01;91.79;100732.53;5050860;28;20262;-77
2020/12/19 02:09:03;;;;;;;16.80;15.27;;;;;;;4.15;92.11;100727.47;5050782;28;20194;-77
2020/12/19 02:11:28;;;;;;;17.10;15.70;;;;;;;3.96;92.02;100727.09;5050650;28;20230;-77
2020/12/19 02:13:54;;;;;;;16.00;14.67;;;;;;;4.13;91.63;100724.22;5050656;28;20168;-77
2020/12/19 02:16:20;;;;;;;15.17;13.97;;;;;;;4.12;90.63;100726.09;5050437;28;20199;-76
2020/12/19 02:18:46;;;;;;;15.00;13.90;;;;;;;4.16;90.61;100719.09;5050708;28;20179;-77
2020/12/19 02:21:12;;;;;;;14.87;13.67;;;;;;;4.04;89.08;100715.78;5050614;28;20696;-77
2020/12/19 02:23:37;;;;;;;16.53;15.23;;;;;;;3.87;89.31;100704.31;5050636;28;20233;-77
2020/12/19 02:26:03;;;;;;;15.00;13.80;;;;;;;3.80;89.32;100701.03;5050614;28;20178;-77
2020/12/19 02:28:28;;;;;;;13.27;12.17;;;;;;;3.56;88.16;100704.09;5050436;28;20190;-76
2020/12/19 02:30:53;;;;;;;16.00;14.40;;;;;;;3.40;88.63;100715.03;5050577;28;20557;-76
2020/12/19 02:33:19;;;;;;;18.23;16.43;;;;;;;3.35;90.04;100707.72;5049376;28;20233;-76
2020/12/19 02:35:44;;;;;;;19.57;17.80;;;;;;;3.29;91.24;100706.84;5050705;28;20230;-76
2020/12/19 02:38:09;;;;;;;19.10;17.30;;;;;;;3.13;91.49;100698.88;5050644;28;20266;-77
2020/12/19 02:40:35;;;;;;;22.57;19.60;;;;;;;3.04;93.13;100689.59;5052468;28;20171;-77
2020/12/19 02:43:00;;;;;;;21.90;19.37;;;;;;;3.24;93.70;100695.19;5057226;28;20215;-76
2020/12/19 02:45:25;;;;;;;23.13;20.37;;;;;;;3.45;93.99;100694.28;5057202;28;20178;-75
2020/12/19 02:47:51;;;;;;;20.97;18.80;;;;;;;3.62;94.09;100690.63;5057008;28;20183;-74
2020/12/19 02:50:16;;;;;;;24.03;21.43;;;;;;;3.68;94.16;100685.00;5057214;28;20210;-75
2020/12/19 02:52:41;;;;;;;22.07;19.80;;;;;;;3.79;94.22;100689.41;5057139;28;20254;-75
2020/12/19 02:55:07;;;;;;;24.83;20.77;;;;;;;3.81;94.29;100678.34;5056811;28;20209;-74
2020/12/19 02:57:32;;;;;;;23.40;21.23;;;;;;;3.84;94.48;100662.41;5055424;28;20179;-75
2020/12/19 02:59:57;;;;;;;23.87;21.33;;;;;;;3.90;94.24;100671.34;5056857;28;20270;-74
2020/12/19 03:02:23;;;;;;;22.80;20.60;;;;;;;3.97;93.86;100665.72;5056949;28;20179;-75
2020/12/19 03:04:48;;;;;;;22.53;20.43;;;;;;;3.91;93.99;100669.50;5056953;28;20190;-75
2020/12/19 03:07:13;;;;;;;23.47;20.43;;;;;;;3.94;94.10;100672.47;5055464;28;20183;-74
2020/12/19 03:09:39;;;;;;;21.90;19.93;;;;;;;3.94;93.85;100671.66;5056919;28;20673;-75
2020/12/19 03:12:04;;;;;;;22.67;20.63;;;;;;;3.93;93.72;100673.56;5055416;28;20207;-74
2020/12/19 03:14:30;;;;;;;21.97;19.90;;;;;;;3.94;93.80;100675.19;5055535;28;20206;-75
2020/12/19 03:16:55;;;;;;;22.13;20.30;;;;;;;3.89;93.35;100670.53;5056928;28;20175;-75
2020/12/19 03:19:20;;;;;;;21.97;20.00;;;;;;;3.93;93.08;100676.25;5056165;28;20175;-75
2020/12/19 03:21:46;;;;;;;21.40;19.60;;;;;;;4.05;93.25;100678.75;5056812;28;20171;-74
2020/12/19 03:24:11;;;;;;;19.80;18.10;;;;;;;3.84;92.88;100688.63;5056804;28;20697;-75
2020/12/19 03:26:36;;;;;;;20.97;19.17;;;;;;;4.00;92.48;100684.13;5056657;28;20179;-75
2020/12/19 03:29:02;;;;;;;21.07;18.90;;;;;;;3.87;92.16;100683.50;5056876;28;20241;-75
2020/12/19 03:31:27;;;;;;;20.23;18.50;;;;;;;3.67;91.93;100679.88;5057044;28;20650;-75
2020/12/19 03:33:53;;;;;;;21.93;20.07;;;;;;;3.71;92.26;100672.88;5056563;28;20229;-75
2020/12/19 03:36:18;;;;;;;19.37;17.67;;;;;;;3.86;92.04;100673.78;5056394;28;20246;-75
2020/12/19 03:38:43;;;;;;;17.00;15.70;;;;;;;3.93;90.78;100675.44;5056732;28;20229;-75
2020/12/19 03:41:09;;;;;;;18.80;17.20;;;;;;;3.76;90.41;100670.19;5056552;28;20183;-75
2020/12/19 03:43:34;;;;;;;20.20;18.50;;;;;;;3.54;90.77;100668.44;5056657;28;20183;-75
2020/12/19 03:46:00;;;;;;;25.57;22.90;;;;;;;3.08;92.82;100653.75;5056817;28;20167;-75
2020/12/19 03:48:25;;;;;;;35.70;25.73;;;;;;;2.96;94.42;100642.31;5056322;28;20201;-74
2020/12/19 03:50:51;;;;;;;45.37;30.13;;;;;;;3.02;95.17;100641.28;5056582;28;20171;-74
2020/12/19 03:53:16;;;;;;;26.10;23.23;;;;;;;3.13;94.71;100653.78;5053862;28;20214;-75
2020/12/19 03:55:42;;;;;;;23.03;20.60;;;;;;;3.12;93.99;100654.88;5053341;28;20590;-74
2020/12/19 03:58:07;;;;;;;19.97;18.27;;;;;;;3.12;93.49;100672.94;5053355;28;20214;-74
2020/12/19 04:00:32;;;;;;;23.23;21.13;;;;;;;2.92;92.92;100660.91;5053527;28;20207;-75
2020/12/19 04:02:58;;;;;;;24.97;21.43;;;;;;;2.65;93.69;100654.69;5052002;28;20228;-74
2020/12/19 04:05:23;;;;;;;31.10;24.37;;;;;;;2.56;94.49;100657.00;5053192;28;20229;-74
2020/12/19 04:07:48;;;;;;;29.83;24.10;;;;;;;2.74;94.83;100652.34;5053282;28;20187;-75
2020/12/19 04:10:14;;;;;;;32.10;23.97;;;;;;;2.82;94.84;100647.31;5053098;28;20206;-75
2020/12/19 04:12:39;;;;;;;27.63;23.67;;;;;;;2.92;94.73;100644.72;5053432;28;20253;-74
2020/12/19 04:15:09;;;;;;;31.60;24.53;;;;;;;3.10;94.25;100648.09;5053131;28;20199;-75
2020/12/19 04:17:36;;;;;;;26.50;23.77;;;;;;;3.22;94.32;100648.75;5051889;28;20175;-75
2020/12/19 04:20:06;;;;;;;29.80;24.20;;;;;;;3.23;94.15;100650.38;5053213;28;20180;-75
2020/12/19 04:22:32;;;;;;;27.00;22.87;;;;;;;3.36;93.98;100654.53;5053154;28;20163;-74
2020/12/19 04:24:57;;;;;;;29.87;24.03;;;;;;;3.36;94.15;100654.53;5052736;28;20176;-75
2020/12/19 04:27:23;;;;;;;32.90;24.83;;;;;;;3.32;93.96;100643.41;5052900;28;20182;-75
2020/12/19 04:29:48;;;;;;;32.90;24.97;;;;;;;3.42;94.44;100639.97;5052801;28;20172;-74
2020/12/19 04:32:13;;;;;;;31.50;24.63;;;;;;;3.48;94.14;100642.47;5052833;28;20178;-75
2020/12/19 04:34:39;;;;;;;38.67;29.27;;;;;;;3.51;94.21;100646.53;5052533;28;20183;-74
2020/12/19 04:37:04;;;;;;;54.30;34.93;;;;;;;3.53;93.93;100647.91;5052577;28;20183;-75
2020/12/19 04:39:29;;;;;;;37.87;27.47;;;;;;;3.59;94.09;100649.56;5052608;28;20184;-75
2020/12/19 04:41:55;;;;;;;32.57;25.90;;;;;;;3.57;94.03;100643.59;5052658;28;20647;-74
2020/12/19 04:44:20;;;;;;;28.37;24.43;;;;;;;3.61;93.81;100629.56;5052475;28;20214;-74
2020/12/19 04:46:47;;;;;;;37.87;27.40;;;;;;;3.62;94.15;100644.69;5052465;28;20172;-75
2020/12/19 04:49:13;;;;;;;35.00;28.70;;;;;;;3.58;93.94;100634.41;5052372;28;20186;-74
2020/12/19 04:51:38;;;;;;;39.97;29.53;;;;;;;3.59;94.36;100633.34;5052430;28;20396;-75
2020/12/19 04:54:06;;;;;;;40.57;29.50;;;;;;;3.61;94.11;100637.66;5052295;28;20228;-75
2020/12/19 04:56:31;;;;;;;47.23;32.53;;;;;;;3.55;94.09;100639.53;5052340;28;20217;-75
2020/12/19 04:58:59;;;;;;;48.57;32.93;;;;;;;3.56;94.17;100633.06;5052214;28;20531;-75
2020/12/19 05:01:25;;;;;;;45.77;31.70;;;;;;;3.64;94.05;100618.25;5051952;28;20179;-74
2020/12/19 05:03:51;;;;;;;43.47;31.57;;;;;;;3.65;94.35;100628.00;5051584;28;20225;-74
2020/12/19 05:06:22;;;;;;;34.00;26.83;;;;;;;3.73;93.96;100625.59;5051853;28;20779;-74
2020/12/19 05:08:47;;;;;;;40.60;29.70;;;;;;;3.71;93.95;100621.53;5051927;28;20254;-74
2020/12/19 05:11:14;;;;;;;46.17;29.30;;;;;;;3.64;93.80;100634.47;5051813;28;20271;-74
2020/12/19 05:13:40;;;;;;;35.13;29.73;;;;;;;3.63;93.79;100633.66;5051797;28;20215;-75
2020/12/19 05:16:10;;;;;;;33.20;27.37;;;;;;;3.74;93.74;100634.50;5052088;28;20209;-74
2020/12/19 05:18:39;;;;;;;31.80;24.43;;;;;;;3.82;93.32;100624.03;5051946;28;20199;-74
2020/12/19 05:21:06;;;;;;;34.73;27.20;;;;;;;3.82;93.41;100631.34;5051859;28;20206;-75
2020/12/19 05:23:36;;;;;;;29.60;24.00;;;;;;;3.84;93.28;100619.19;5051784;28;20471;-74
2020/12/19 05:26:06;;;;;;;33.30;24.77;;;;;;;3.81;93.13;100618.91;5052061;28;20270;-74
2020/12/19 05:28:37;;;;;;;30.33;26.07;;;;;;;3.84;93.36;100619.19;5051995;28;20186;-74
2020/12/19 05:31:03;;;;;;;28.97;25.73;;;;;;;3.78;92.80;100617.53;5052160;28;20175;-74
2020/12/19 05:33:34;;;;;;;39.20;28.27;;;;;;;3.74;92.97;100621.00;5057043;28;20179;-74
2020/12/19 05:35:59;;;;;;;37.03;28.23;;;;;;;3.66;93.57;100613.41;5058972;28;20650;-75
2020/12/19 05:38:28;;;;;;;39.87;28.90;;;;;;;3.67;93.26;100606.94;5053539;28;20207;-74
2020/12/19 05:40:53;;;;;;;40.80;28.53;;;;;;;3.66;93.43;100608.00;5052223;28;20199;-74
2020/12/19 05:43:18;;;;;;;38.27;28.50;;;;;;;3.70;93.44;100611.81;5051612;28;20597;-74
2020/12/19 05:45:44;;;;;;;34.53;28.03;;;;;;;3.77;93.44;100605.09;5051535;28;20577;-75
2020/12/19 05:48:09;;;;;;;74.50;40.50;;;;;;;3.78;93.38;100595.09;5051299;28;20191;-74
2020/12/19 05:50:34;;;;;;;46.67;31.67;;;;;;;3.73;93.07;100590.47;5051513;28;20257;-73
2020/12/19 05:53:02;;;;;;;39.90;29.30;;;;;;;3.81;92.99;100591.88;5051508;28;20179;-74
2020/12/19 05:55:28;;;;;;;38.00;29.33;;;;;;;3.69;93.04;100591.25;5051199;28;20207;-74
2020/12/19 05:57:53;;;;;;;40.53;28.43;;;;;;;3.76;92.73;100591.81;5051174;28;20223;-73
2020/12/19 06:00:19;;;;;;;38.70;28.60;;;;;;;3.73;92.60;100584.25;5051326;28;20635;-74
2020/12/19 06:02:45;;;;;;;39.17;27.40;;;;;;;3.76;92.47;100589.97;5051380;28;20213;-74
2020/12/19 06:05:12;;;;;;;29.80;24.77;;;;;;;3.77;92.97;100579.97;5051128;28;20654;-74
2020/12/19 06:07:39;;;;;;;33.63;27.60;;;;;;;3.72;92.92;100577.22;5050920;28;20171;-74
2020/12/19 06:10:07;;;;;;;32.27;25.50;;;;;;;3.88;92.15;100581.63;5051063;28;20179;-74
2020/12/19 06:13:05;;;;;;;31.50;26.90;;;;;;;3.85;92.24;100574.06;5051070;28;20250;-74
2020/12/19 06:15:49;;;;;;;25.30;21.00;;;;;;;3.86;92.20;100571.06;5046945;28;20223;-74
2020/12/19 06:18:43;;;;;;;30.90;26.50;;;;;;;3.85;91.94;100568.66;5050796;28;20591;-74
2020/12/19 06:21:09;;;;;;;26.30;22.90;;;;;;;3.91;91.49;100559.50;5051259;28;20175;-74
2020/12/19 06:23:36;;;;;;;25.37;20.30;;;;;;;3.89;91.73;100572.44;5050764;28;20611;-74
2020/12/19 06:26:03;;;;;;;26.07;19.60;;;;;;;3.82;91.87;100578.09;5049735;28;20418;-74
2020/12/19 06:28:37;;;;;;;22.13;16.87;;;;;;;3.97;91.41;100574.66;5050788;28;20682;-74
2020/12/19 06:31:09;;;;;;;25.50;22.77;;;;;;;3.92;91.31;100580.03;5050977;28;20186;-73
2020/12/19 06:33:36;;;;;;;29.77;21.27;;;;;;;3.94;91.30;100571.66;5050671;28;20175;-73
2020/12/19 06:36:04;;;;;;;33.00;24.53;;;;;;;3.93;91.33;100573.56;5050703;28;20253;-74
2020/12/19 06:38:41;;;;;;;27.50;24.17;;;;;;;3.89;90.78;100570.53;5050513;28;20174;-74
2020/12/19 06:41:07;;;;;;;30.67;20.33;;;;;;;3.88;91.50;100581.63;5051085;28;20278;-74
2020/12/19 06:43:32;;;;;;;23.07;20.50;;;;;;;3.93;91.03;100583.56;5050691;28;20254;-74
2020/12/19 06:45:57;;;;;;;27.00;23.13;;;;;;;3.77;91.48;100580.78;5050697;28;20669;-74
2020/12/19 06:48:29;;;;;;;27.10;23.33;;;;;;;3.82;91.49;100569.19;5050436;28;20190;-74
2020/12/19 06:50:59;;;;;;;23.53;21.03;;;;;;;3.85;90.94;100571.34;5049872;28;20740;-74
2020/12/19 06:53:25;;;;;;;26.67;20.40;;;;;;;3.85;91.04;100572.16;5050501;28;20179;-74
2020/12/19 06:55:51;;;;;;;22.90;20.57;;;;;;;3.87;91.07;100569.19;5050620;28;20214;-74
2020/12/19 06:58:35;;;;;;;28.77;21.97;;;;;;;3.84;91.16;100564.31;5049206;28;20210;-73
2020/12/19 07:01:21;;;;;;;22.60;19.83;;;;;;;3.94;91.06;100574.38;5050448;28;20182;-74
2020/12/19 07:03:46;;;;;;;23.60;21.30;;;;;;;3.93;90.75;100576.25;5050472;28;20186;-74
2020/12/19 07:06:16;;;;;;;21.67;19.40;;;;;;;3.95;91.05;100579.50;5050389;28;20172;-74
2020/12/19 07:08:42;;;;;;;24.43;21.20;;;;;;;3.94;90.66;100591.41;5050522;28;20171;-74
2020/12/19 07:11:12;;;;;;;20.13;17.80;;;;;;;3.93;90.64;100584.38;5050418;28;20177;-74
2020/12/19 07:13:53;;;;;;;21.03;18.30;;;;;;;3.94;90.43;100577.88;5050517;28;20420;-74
2020/12/19 07:16:45;;;;;;;20.73;18.67;;;;;;;4.03;90.57;100576.28;5048701;28;20215;-74
2020/12/19 07:19:24;;;;;;;17.90;15.83;;;;;;;4.04;90.55;100579.78;5050289;28;20179;-73
2020/12/19 07:21:51;;;;;;;21.83;19.50;;;;;;;4.04;90.29;100579.78;5050184;28;20220;-74
2020/12/19 07:24:16;;;;;;;23.13;20.67;;;;;;;3.93;90.58;100587.06;5050274;28;20175;-74
2020/12/19 07:26:42;;;;;;;17.87;14.33;;;;;;;3.96;90.58;100583.03;5051001;28;20175;-73
2020/12/19 07:29:22;;;;;;;14.47;12.97;;;;;;;4.07;90.36;100585.50;5054004;28;20175;-75
2020/12/19 07:31:52;;;;;;;19.23;17.23;;;;;;;4.10;90.04;100590.38;5054026;28;20186;-75
2020/12/19 07:34:19;;;;;;;20.70;18.77;;;;;;;4.08;90.01;100586.31;5052363;28;20968;-75
2020/12/19 07:36:46;;;;;;;23.50;21.00;;;;;;;4.09;90.20;100587.94;5053673;28;20693;-73
2020/12/19 07:39:13;;;;;;;21.63;19.33;;;;;;;4.15;89.93;100590.38;5053642;28;20171;-73
2020/12/19 07:41:40;;;;;;;20.50;18.40;;;;;;;4.21;89.68;100579.59;5053673;28;20163;-73
2020/12/19 07:44:27;;;;;;;18.47;16.77;;;;;;;4.18;89.69;100580.94;5053698;28;20195;-74
2020/12/19 07:46:58;;;;;;;19.37;17.20;;;;;;;4.16;89.77;100578.50;5052825;28;20195;-74
2020/12/19 07:49:28;;;;;;;18.53;16.77;;;;;;;4.25;89.61;100569.88;5052327;28;20194;-74
2020/12/19 07:52:07;;;;;;;15.67;14.10;;;;;;;4.30;88.74;100572.59;5053498;28;20179;-74
2020/12/19 07:54:33;;;;;;;20.60;18.40;;;;;;;4.30;88.92;100578.00;5052229;28;20179;-74
2020/12/19 07:57:00;;;;;;;21.57;19.57;;;;;;;4.30;89.38;100569.88;5053242;28;20206;-74
2020/12/19 07:59:26;;;;;;;21.80;19.53;;;;;;;4.30;88.92;100578.00;5053329;28;20182;-74
2020/12/19 08:01:53;;;;;;;20.93;18.60;;;;;;;4.32;88.99;100571.25;5053472;28;20385;-74
2020/12/19 08:04:18;;;;;;;18.97;17.30;;;;;;;4.38;88.76;100564.78;5053179;28;20659;-74
2020/12/19 08:06:47;;;;;;;17.33;15.73;;;;;;;4.48;88.86;100574.78;5053264;28;20266;-73
2020/12/19 08:09:20;;;;;;;58.20;30.17;;;;;;;4.48;88.44;100559.41;5053556;28;20253;-74
2020/12/19 08:11:47;;;;;;;22.57;20.47;;;;;;;4.45;88.63;100561.81;5053142;28;20639;-74
2020/12/19 08:14:17;;;;;;;18.83;17.20;;;;;;;4.48;88.65;100569.38;5053118;28;20264;-74
2020/12/19 08:16:44;;;;;;;20.43;18.57;;;;;;;4.45;88.47;100576.13;5053280;28;20211;-74
2020/12/19 08:19:11;;;;;;;19.17;17.20;;;;;;;4.52;88.29;100575.91;5053069;28;20175;-74
2020/12/19 08:21:38;;;;;;;19.43;17.73;;;;;;;4.63;87.95;100582.13;5053371;28;20553;-74
2020/12/19 08:24:04;;;;;;;20.53;18.83;;;;;;;4.55;87.99;100559.13;5053056;28;20183;-74
2020/12/19 08:26:29;;;;;;;12.77;10.93;;;;;;;4.63;87.72;100572.13;5052981;28;20516;-74
2020/12/19 08:29:01;;;;;;;15.83;14.33;;;;;;;4.65;87.57;100574.56;5053144;28;20206;-73
2020/12/19 08:31:28;;;;;;;17.33;15.83;;;;;;;4.75;87.52;100563.72;5051515;28;20214;-74
2020/12/19 08:33:55;;;;;;;8.40;7.33;;;;;;;4.80;87.79;100573.78;5052630;28;20627;-74
2020/12/19 08:36:20;;;;;;;17.97;16.50;;;;;;;4.83;87.27;100575.94;5052473;28;20216;-74
2020/12/19 08:38:46;;;;;;;9.77;8.53;;;;;;;4.97;87.15;100571.59;5051647;28;20548;-74
2020/12/19 08:41:21;;;;;;;15.57;14.23;;;;;;;5.03;86.98;100570.50;5052413;28;20187;-74
2020/12/19 08:43:46;;;;;;;19.03;17.33;;;;;;;5.00;87.21;100573.75;5052517;28;20221;-74
2020/12/19 08:46:14;;;;;;;8.30;7.40;;;;;;;5.04;86.63;100575.66;5052426;28;20609;-73
2020/12/19 08:48:43;;;;;;;9.57;8.70;;;;;;;5.06;86.51;100569.97;5052332;28;20187;-74
2020/12/19 08:51:14;;;;;;;7.23;6.63;;;;;;;5.08;86.46;100579.47;5052375;28;20175;-74
2020/12/19 08:53:39;;;;;;;14.60;11.37;;;;;;;5.12;86.34;100585.13;5052239;28;20175;-74
2020/12/19 08:56:18;;;;;;;6.60;5.23;;;;;;;5.24;85.94;100582.16;5052233;28;20207;-73
2020/12/19 08:58:54;;;;;;;18.63;16.67;;;;;;;5.31;85.77;100597.03;5052426;28;20305;-73
2020/12/19 09:01:19;;;;;;;16.43;14.73;;;;;;;5.34;85.68;100585.63;5052292;28;20279;-74
2020/12/19 09:03:45;;;;;;;12.43;11.23;;;;;;;5.37;85.59;100587.03;5052282;28;20254;-76
2020/12/19 09:06:12;;;;;;;9.77;8.80;;;;;;;5.34;85.65;100591.06;5052423;28;20179;-74
2020/12/19 09:08:38;;;;;;;13.50;12.30;;;;;;;5.43;85.41;100596.75;5058269;28;20372;-74
2020/12/19 09:11:06;;;;;;;12.53;11.50;;;;;;;5.44;85.40;100592.94;5052119;28;20258;-74
2020/12/19 09:13:31;;;;;;;11.67;10.63;;;;;;;5.51;85.04;100600.81;5051976;28;20175;-74
2020/12/19 09:16:12;;;;;;;7.47;6.37;;;;;;;5.62;84.69;100595.06;5051790;28;20215;-74
2020/12/19 09:18:38;;;;;;;9.87;8.83;;;;;;;5.68;84.28;100599.41;5051611;28;20167;-74
2020/12/19 09:21:06;;;;;;;14.30;13.10;;;;;;;5.78;83.82;100601.28;5052111;28;20541;-74
2020/12/19 09:23:32;;;;;;;10.67;9.73;;;;;;;5.78;83.76;100606.69;5051330;28;20336;-74
2020/12/19 09:26:00;;;;;;;9.70;8.70;;;;;;;5.83;83.69;100605.88;5049793;28;20682;-74
2020/12/19 09:28:27;;;;;;;5.80;5.23;;;;;;;5.87;83.71;100605.06;5049594;28;20605;-74
2020/12/19 09:30:53;;;;;;;9.47;8.50;;;;;;;5.97;83.59;100601.53;5051166;28;20171;-75
2020/12/19 09:33:19;;;;;;;15.77;14.33;;;;;;;5.95;83.65;100599.09;5050731;28;20651;-74
2020/12/19 09:35:46;;;;;;;14.97;13.77;;;;;;;6.02;83.41;100606.13;5050925;28;20202;-74
2020/12/19 09:38:12;;;;;;;15.07;13.73;;;;;;;6.01;83.13;100605.31;5051105;28;20206;-74
2020/12/19 09:40:38;;;;;;;12.40;11.30;;;;;;;6.04;82.87;100603.94;5051503;28;20171;-76
2020/12/19 09:43:04;;;;;;;14.60;13.40;;;;;;;6.12;82.74;100606.91;5051521;28;20175;-75
2020/12/19 09:45:30;;;;;;;14.50;13.33;;;;;;;6.14;82.63;100603.91;5051439;28;20620;-74
2020/12/19 09:47:56;;;;;;;21.43;19.23;;;;;;;6.17;82.70;100600.63;5051108;28;20187;-74
2020/12/19 09:50:23;;;;;;;11.83;10.67;;;;;;;6.31;82.59;100598.13;5051268;28;20171;-74
2020/12/19 09:52:49;;;;;;;6.07;5.07;;;;;;;6.48;82.11;100595.84;5049989;28;20583;-74
2020/12/19 09:55:15;;;;;;;10.17;9.27;;;;;;;6.56;81.72;100596.09;5051295;28;20199;-74
2020/12/19 09:57:40;;;;;;;14.50;13.40;;;;;;;6.52;81.96;100591.50;5051243;28;20548;-75
2020/12/19 10:00:08;;;;;;;14.17;13.03;;;;;;;6.65;81.85;100587.34;5049636;28;20179;-74
2020/12/19 10:02:33;;;;;;;13.33;12.23;;;;;;;6.70;81.23;100579.19;5050840;28;20598;-73
2020/12/19 10:04:58;;;;;;;18.30;16.57;;;;;;;6.70;81.38;100585.41;5050843;28;20262;-73
2020/12/19 10:07:24;;;;;;;13.80;12.70;;;;;;;6.69;81.37;100577.56;5050780;28;20643;-73
2020/12/19 10:09:49;;;;;;;13.40;12.30;;;;;;;6.52;81.19;100570.59;5050710;28;20179;-74
2020/12/19 10:12:14;;;;;;;14.80;13.43;;;;;;;6.47;81.34;100562.47;5050684;28;20309;-73
2020/12/19 10:14:40;;;;;;;14.93;13.63;;;;;;;6.57;82.16;100569.75;5050495;28;20178;-73
2020/12/19 10:17:05;;;;;;;14.37;13.27;;;;;;;6.49;82.45;100571.16;5050972;28;20180;-74
2020/12/19 10:19:32;;;;;;;15.07;13.93;;;;;;;6.49;81.90;100565.72;5050633;28;20253;-73
2020/12/19 10:21:58;;;;;;;14.30;13.00;;;;;;;6.65;81.82;100568.34;5049243;28;20181;-74
2020/12/19 10:24:24;;;;;;;13.00;11.90;;;;;;;6.79;81.61;100547.59;5050595;28;20254;-73
2020/12/19 10:26:49;;;;;;;13.40;12.40;;;;;;;6.81;81.14;100542.72;5050358;28;20654;-73
2020/12/19 10:29:15;;;;;;;12.93;11.93;;;;;;;7.01;81.22;100545.25;5050470;28;20178;-74
2020/12/19 10:31:41;;;;;;;13.50;12.40;;;;;;;7.09;80.72;100539.22;5048933;28;20717;-73
2020/12/19 10:34:06;;;;;;;13.50;12.50;;;;;;;6.99;80.80;100544.72;5050898;28;20355;-73
2020/12/19 10:36:32;;;;;;;14.00;12.93;;;;;;;7.06;80.91;100553.34;5050250;28;20207;-73
2020/12/19 10:38:58;;;;;;;12.47;11.57;;;;;;;7.12;80.38;100535.91;5050759;28;20228;-73
2020/12/19 10:41:23;;;;;;;13.50;12.20;;;;;;;7.19;79.94;100537.47;5050411;28;20642;-73
2020/12/19 10:43:49;;;;;;;12.93;12.00;;;;;;;7.20;79.59;100534.47;5050166;28;20254;-73
2020/12/19 10:46:20;;;;;;;12.37;11.40;;;;;;;7.25;80.33;100537.16;5049807;28;20194;-74
2020/12/19 10:48:45;;;;;;;11.03;10.20;;;;;;;7.33;80.66;100536.50;5048976;28;20226;-74
2020/12/19 10:51:11;;;;;;;12.30;11.40;;;;;;;7.38;79.54;100530.25;5050382;28;20650;-73
2020/12/19 10:53:36;;;;;;;11.97;10.97;;;;;;;7.53;79.67;100530.06;5050192;28;20547;-74
2020/12/19 10:56:01;;;;;;;11.27;10.37;;;;;;;7.84;78.88;100527.00;5050385;28;20199;-73
2020/12/19 10:58:27;;;;;;;9.93;9.03;;;;;;;8.04;78.28;100529.44;5050091;28;20642;-73
2020/12/19 11:00:52;;;;;;;9.97;9.17;;;;;;;8.04;78.54;100518.56;5050497;28;20182;-74
2020/12/19 11:03:17;;;;;;;4.00;3.70;;;;;;;8.27;77.42;100522.34;5053783;28;20879;-73
2020/12/19 11:05:43;;;;;;;8.77;8.07;;;;;;;8.38;76.79;100525.72;5054265;28;20179;-73
2020/12/19 11:08:08;;;;;;;9.10;8.40;;;;;;;8.36;76.97;100504.25;5054224;28;20284;-73
2020/12/19 11:10:34;;;;;;;10.07;9.27;;;;;;;8.34;76.46;100499.09;5054241;28;20266;-73
2020/12/19 11:13:03;;;;;;;9.17;8.47;;;;;;;8.37;76.82;100505.06;5054616;28;20179;-73
2020/12/19 11:15:32;;;;;;;9.93;9.13;;;;;;;8.41;76.28;100501.47;5054057;28;20205;-73
2020/12/19 11:17:58;;;;;;;10.77;9.77;;;;;;;8.48;76.38;100495.66;5052632;28;20408;-74
2020/12/19 11:20:24;;;;;;;9.10;8.40;;;;;;;8.58;75.84;100500.94;5054070;28;20180;-74